Time;durP1;ratioP1;P1;durP2;ratioP2;P2;SDS_P1;SDS_P2;PMS_P1;PMS_P2;Temp;Humidity;BMP_temperature;BMP_pressure;BME280_temperature;BME280_humidity;BME280_pressure;Samples;Min_cycle;Max_cycle;Signal;HPM_P1;HPM_P2
2021/07/21 00:02:07;;;;;;;4.60;3.45;;;26.00;51.80;;;;;;5049621;28;20136;-62
2021/07/21 00:04:34;;;;;;;4.15;3.38;;;26.00;51.80;;;;;;5048910;28;20056;-62
2021/07/21 00:07:02;;;;;;;4.07;3.67;;;26.00;51.90;;;;;;5049605;28;20110;-62
2021/07/21 00:09:29;;;;;;;3.92;3.50;;;26.00;51.90;;;;;;5047891;28;20507;-63
2021/07/21 00:14:44;;;;;;;4.15;3.60;;;25.90;51.90;;;;;;5048737;28;20045;-62
2021/07/21 00:17:19;;;;;;;3.92;3.40;;;25.90;51.90;;;;;;5049529;28;20053;-62
2021/07/21 00:20:07;;;;;;;5.05;4.03;;;26.00;51.90;;;;;;5048891;28;20045;-62
2021/07/21 00:22:38;;;;;;;4.57;3.65;;;26.00;51.90;;;;;;5049026;28;20452;-62
2021/07/21 00:25:09;;;;;;;4.30;3.63;;;26.00;51.90;;;;;;5048985;28;20080;-62
2021/07/21 00:27:36;;;;;;;4.30;3.72;;;26.00;51.90;;;;;;5048808;28;20088;-62
2021/07/21 00:30:05;;;;;;;4.90;3.88;;;26.00;51.90;;;;;;5049013;28;20150;-61
2021/07/21 00:32:34;;;;;;;4.83;3.70;;;26.00;51.90;;;;;;5049034;28;20059;-63
2021/07/21 00:35:01;;;;;;;3.97;3.58;;;26.00;51.90;;;;;;5048770;28;20620;-62
2021/07/21 00:37:28;;;;;;;4.82;4.20;;;26.00;51.80;;;;;;5048716;28;20136;-62
2021/07/21 00:39:55;;;;;;;3.42;3.13;;;26.00;51.90;;;;;;5048480;28;20048;-62
2021/07/21 00:42:23;;;;;;;4.53;3.42;;;26.00;51.80;;;;;;5048922;28;20080;-62
2021/07/21 00:44:53;;;;;;;4.95;4.22;;;26.00;51.80;;;;;;5048764;28;20068;-62
2021/07/21 00:47:20;;;;;;;;;;;26.00;51.80;;;;;;5049186;28;20056;-61
2021/07/21 00:49:47;;;;;;;4.28;3.42;;;26.00;51.80;;;;;;5048668;28;20024;-62
2021/07/21 00:52:16;;;;;;;5.07;3.60;;;25.90;51.80;;;;;;5048138;28;20136;-62
2021/07/21 00:54:45;;;;;;;4.28;3.38;;;25.90;51.80;;;;;;5048298;28;20559;-62
2021/07/21 00:57:13;;;;;;;4.78;3.80;;;25.90;51.90;;;;;;5048457;28;20052;-60
2021/07/21 00:59:42;;;;;;;3.88;3.47;;;25.90;51.90;;;;;;5048792;28;20164;-61
2021/07/21 01:02:09;;;;;;;4.30;3.50;;;25.90;51.90;;;;;;5048106;28;20049;-61
2021/07/21 01:04:37;;;;;;;4.15;3.75;;;25.90;51.90;;;;;;5048070;28;20500;-62
2021/07/21 01:07:07;;;;;;;6.40;4.28;;;25.90;51.90;;;;;;5048142;28;20049;-61
2021/07/21 01:09:42;;;;;;;4.57;3.70;;;25.90;51.90;;;;;;5048328;28;20110;-61
2021/07/21 01:12:33;;;;;;;4.20;3.80;;;25.90;51.90;;;;;;5048432;28;20084;-61
2021/07/21 01:15:10;;;;;;;5.22;4.13;;;25.90;51.90;;;;;;5048087;28;20067;-61
2021/07/21 01:17:58;;;;;;;4.30;3.42;;;25.90;51.90;;;;;;5048317;28;20084;-61
2021/07/21 01:20:54;;;;;;;3.97;3.45;;;25.90;52.00;;;;;;5047963;28;20063;-61
2021/07/21 01:23:54;;;;;;;3.97;3.58;;;25.90;52.00;;;;;;5048189;28;20087;-61
2021/07/21 01:26:26;;;;;;;;;;;25.90;52.00;;;;;;5048126;28;20072;-61
2021/07/21 01:28:56;;;;;;;4.57;3.70;;;25.90;52.00;;;;;;5048152;28;20012;-61
2021/07/21 01:31:30;;;;;;;4.90;3.97;;;25.90;52.00;;;;;;5047987;28;20045;-61
2021/07/21 01:33:58;;;;;;;3.72;3.33;;;25.80;52.00;;;;;;5047699;28;20059;-61
2021/07/21 01:36:30;;;;;;;5.20;4.43;;;25.90;52.00;;;;;;5046565;28;20052;-61
2021/07/21 01:39:03;;;;;;;4.82;3.92;;;25.90;52.10;;;;;;5047594;28;20084;-61
2021/07/21 01:41:35;;;;;;;3.55;3.25;;;25.90;52.10;;;;;;5047251;28;20102;-61
2021/07/21 01:44:08;;;;;;;4.90;4.22;;;25.80;52.00;;;;;;5047788;28;20564;-61
2021/07/21 01:46:35;;;;;;;4.13;3.67;;;25.90;52.10;;;;;;5047342;28;20512;-61
2021/07/21 01:49:05;;;;;;;4.30;3.67;;;25.80;52.00;;;;;;5047355;28;20103;-61
2021/07/21 01:51:33;;;;;;;3.60;3.30;;;25.90;52.10;;;;;;5047235;28;20090;-61
2021/07/21 01:54:02;;;;;;;4.97;3.88;;;25.80;52.00;;;;;;5047434;28;20048;-61
2021/07/21 01:56:33;;;;;;;4.18;3.60;;;25.80;52.10;;;;;;5047136;28;20049;-61
2021/07/21 01:59:01;;;;;;;4.47;3.58;;;25.80;52.00;;;;;;5047397;28;20088;-61
2021/07/21 02:01:31;;;;;;;4.43;3.70;;;25.80;52.10;;;;;;5047139;28;20085;-61
2021/07/21 02:04:01;;;;;;;4.47;3.75;;;25.80;52.10;;;;;;5046278;28;20127;-61
2021/07/21 02:06:31;;;;;;;4.57;3.65;;;25.80;52.00;;;;;;5047417;28;20144;-61
2021/07/21 02:09:00;;;;;;;4.80;3.50;;;25.80;52.00;;;;;;5047168;28;20045;-61
2021/07/21 02:11:28;;;;;;;4.28;3.65;;;25.90;52.10;;;;;;5047122;28;20053;-61
2021/07/21 02:13:58;;;;;;;5.72;3.35;;;25.80;52.00;;;;;;5047245;28;20092;-61
2021/07/21 02:16:26;;;;;;;5.00;3.92;;;25.90;52.10;;;;;;5047177;28;20045;-61
2021/07/21 02:18:55;;;;;;;3.55;3.25;;;25.90;52.10;;;;;;5047404;28;20055;-61
2021/07/21 02:21:24;;;;;;;4.32;3.92;;;25.90;52.00;;;;;;5047383;28;20041;-61
2021/07/21 02:23:52;;;;;;;4.05;3.58;;;25.80;51.90;;;;;;5047070;28;20131;-61
2021/07/21 02:26:20;;;;;;;4.18;3.78;;;25.90;51.90;;;;;;5047604;28;20123;-61
2021/07/21 02:28:49;;;;;;;3.88;3.33;;;25.90;52.00;;;;;;5047022;28;20132;-61
2021/07/21 02:31:26;;;;;;;3.97;3.58;;;25.90;51.90;;;;;;5047276;28;20128;-61
2021/07/21 02:33:57;;;;;;;3.33;3.00;;;25.80;51.90;;;;;;5050484;28;20059;-61
2021/07/21 02:36:25;;;;;;;4.28;3.70;;;25.90;52.00;;;;;;5051469;28;20124;-61
2021/07/21 02:38:53;;;;;;;3.67;3.30;;;25.80;51.90;;;;;;5050911;28;20053;-62
2021/07/21 02:41:20;;;;;;;4.20;3.78;;;25.80;52.00;;;;;;5051032;28;20091;-61
2021/07/21 02:43:47;;;;;;;4.63;3.58;;;25.80;52.00;;;;;;5050952;28;20108;-60
2021/07/21 02:46:15;;;;;;;6.40;4.45;;;25.80;52.00;;;;;;5050686;28;20053;-61
2021/07/21 02:48:46;;;;;;;4.72;3.67;;;25.80;52.00;;;;;;5051230;28;20053;-61
2021/07/21 02:51:35;;;;;;;4.38;3.25;;;25.80;52.00;;;;;;5050846;28;20140;-61
2021/07/21 02:54:31;;;;;;;4.65;3.60;;;25.80;52.00;;;;;;5050656;28;20055;-61
2021/07/21 02:57:10;;;;;;;3.35;3.00;;;25.80;52.00;;;;;;5050813;28;20156;-61
2021/07/21 02:59:50;;;;;;;4.13;3.72;;;25.80;52.00;;;;;;5050918;28;20041;-61
2021/07/21 03:02:22;;;;;;;4.60;3.65;;;25.80;52.00;;;;;;5050326;28;20049;-61
2021/07/21 03:04:52;;;;;;;4.70;3.88;;;25.80;52.10;;;;;;5050700;28;20460;-61
2021/07/21 03:07:20;;;;;;;;;;;25.80;52.10;;;;;;5051063;28;20072;-61
2021/07/21 03:09:49;;;;;;;3.83;3.42;;;25.80;52.10;;;;;;5050238;28;19921;-61
2021/07/21 03:12:17;;;;;;;4.85;3.85;;;25.80;52.10;;;;;;5050722;28;20481;-61
2021/07/21 03:14:45;;;;;;;3.67;3.22;;;25.80;52.20;;;;;;5049989;28;20067;-61
2021/07/21 03:17:14;;;;;;;4.47;3.30;;;25.80;52.10;;;;;;5050234;28;20131;-61
2021/07/21 03:19:44;;;;;;;6.10;4.07;;;25.80;52.20;;;;;;5050272;28;20488;-61
2021/07/21 03:22:12;;;;;;;4.03;3.63;;;25.80;52.10;;;;;;5050399;28;20053;-61
2021/07/21 03:24:43;;;;;;;5.00;4.07;;;25.80;52.10;;;;;;5050080;28;20136;-61
2021/07/21 03:27:12;;;;;;;3.95;3.55;;;25.80;52.10;;;;;;5050479;28;20052;-61
2021/07/21 03:29:40;;;;;;;4.30;3.83;;;25.80;52.10;;;;;;5050135;28;20080;-61
2021/07/21 03:32:08;;;;;;;4.10;3.40;;;25.80;52.10;;;;;;5049766;28;20132;-61
2021/07/21 03:34:39;;;;;;;4.47;3.83;;;25.80;52.10;;;;;;5049877;28;20453;-61
2021/07/21 03:37:10;;;;;;;5.80;3.42;;;25.80;52.10;;;;;;5050484;28;20130;-61
2021/07/21 03:39:38;;;;;;;4.40;3.40;;;25.80;52.00;;;;;;5049478;28;20132;-61
2021/07/21 03:42:07;;;;;;;4.05;3.30;;;25.80;52.00;;;;;;5049853;28;20099;-61
2021/07/21 03:44:34;;;;;;;4.60;3.42;;;25.80;52.00;;;;;;5049029;28;20076;-61
2021/07/21 03:47:02;;;;;;;4.47;3.53;;;25.80;52.00;;;;;;5049964;28;20071;-61
2021/07/21 03:49:29;;;;;;;3.75;3.13;;;25.80;52.00;;;;;;5049661;28;20103;-60
2021/07/21 03:51:56;;;;;;;4.53;3.55;;;25.80;52.00;;;;;;5049923;28;20472;-61
2021/07/21 03:54:25;;;;;;;4.63;3.22;;;25.80;51.90;;;;;;5049527;28;20145;-61
2021/07/21 03:56:53;;;;;;;4.33;3.53;;;25.80;51.80;;;;;;5049363;28;20087;-60
2021/07/21 03:59:23;;;;;;;3.50;3.00;;;25.90;51.90;;;;;;5052014;28;20051;-61
2021/07/21 04:01:51;;;;;;;4.75;3.53;;;25.90;51.80;;;;;;5057172;28;20045;-61
2021/07/21 04:04:20;;;;;;;4.03;3.25;;;25.90;51.80;;;;;;5049202;28;20053;-61
2021/07/21 04:06:48;;;;;;;3.45;3.00;;;25.90;51.70;;;;;;5049465;28;20084;-61
2021/07/21 04:09:19;;;;;;;4.22;3.50;;;25.90;51.70;;;;;;5049098;28;20111;-61
2021/07/21 04:11:49;;;;;;;4.22;3.47;;;25.90;51.70;;;;;;5049357;28;20052;-60
2021/07/21 04:14:18;;;;;;;3.90;3.33;;;25.90;51.60;;;;;;5049145;28;20132;-61
2021/07/21 04:16:50;;;;;;;3.85;3.42;;;25.90;51.60;;;;;;5049455;28;20136;-61
2021/07/21 04:19:18;;;;;;;4.38;3.90;;;26.00;51.60;;;;;;5048279;28;20102;-61
2021/07/21 04:21:48;;;;;;;4.78;3.55;;;26.00;51.60;;;;;;5049353;28;20268;-61
2021/07/21 04:24:15;;;;;;;3.67;3.30;;;26.00;51.60;;;;;;5048700;28;20051;-61
2021/07/21 04:26:45;;;;;;;3.35;3.05;;;26.00;51.50;;;;;;5048693;28;20123;-61
2021/07/21 04:29:14;;;;;;;3.47;3.17;;;26.00;52.00;;;;;;5048816;28;20124;-61
2021/07/21 04:31:43;;;;;;;3.90;3.20;;;26.00;51.40;;;;;;5049197;28;20131;-61
2021/07/21 04:34:12;;;;;;;5.63;3.33;;;26.00;51.40;;;;;;5051395;28;20041;-62
2021/07/21 04:36:41;;;;;;;3.78;3.25;;;26.00;51.30;;;;;;5048873;28;20394;-61
2021/07/21 04:39:11;;;;;;;4.15;3.30;;;26.00;51.30;;;;;;5048493;28;20077;-61
2021/07/21 04:41:39;;;;;;;3.60;3.22;;;26.10;51.30;;;;;;5048498;28;20490;-61
2021/07/21 04:44:06;;;;;;;3.50;3.20;;;26.10;51.20;;;;;;5048450;28;20090;-61
2021/07/21 04:46:34;;;;;;;4.00;3.38;;;26.10;51.20;;;;;;5048510;28;20055;-61
2021/07/21 04:49:03;;;;;;;4.07;3.40;;;26.10;51.10;;;;;;5048665;28;20055;-61
2021/07/21 04:51:31;;;;;;;3.70;3.13;;;26.10;51.00;;;;;;5048549;28;20049;-61
2021/07/21 04:54:05;;;;;;;3.83;3.38;;;26.10;50.90;;;;;;5047967;28;20041;-61
2021/07/21 04:56:34;;;;;;;3.22;2.88;;;26.20;50.80;;;;;;5047322;28;20136;-61
2021/07/21 04:59:02;;;;;;;3.83;3.30;;;26.20;50.70;;;;;;5048217;28;20041;-61
2021/07/21 05:01:29;;;;;;;4.20;3.47;;;26.20;50.60;;;;;;5048150;28;20508;-60
2021/07/21 05:03:58;;;;;;;4.68;3.42;;;26.20;50.70;;;;;;5047317;28;20063;-61
2021/07/21 05:06:25;;;;;;;5.13;3.40;;;26.20;50.80;;;;;;5048151;28;20489;-61
2021/07/21 05:08:52;;;;;;;3.90;3.15;;;26.20;50.70;;;;;;5051904;28;20089;-61
2021/07/21 05:11:20;;;;;;;3.85;3.30;;;26.20;50.50;;;;;;5046695;28;20513;-61
2021/07/21 05:13:48;;;;;;;3.92;3.53;;;26.20;50.80;;;;;;5048111;28;20476;-61
2021/07/21 05:16:16;;;;;;;4.47;3.35;;;26.20;50.00;;;;;;5052779;28;20088;-61
2021/07/21 05:18:43;;;;;;;4.22;3.40;;;26.10;49.90;;;;;;5047369;28;20071;-66
2021/07/21 05:21:10;;;;;;;4.15;3.28;;;26.00;49.70;;;;;;5048255;28;20049;-65
2021/07/21 05:23:37;;;;;;;3.80;3.20;;;26.00;49.80;;;;;;5053788;28;20183;-66
2021/07/21 05:26:07;;;;;;;5.55;3.13;;;25.90;49.90;;;;;;5063311;28;20432;-65
2021/07/21 05:28:37;;;;;;;3.90;3.35;;;25.70;50.10;;;;;;5056787;28;20226;-60
2021/07/21 05:31:06;;;;;;;3.58;3.08;;;25.60;50.30;;;;;;5053906;28;20040;-60
2021/07/21 05:33:33;;;;;;;4.45;3.47;;;25.40;50.50;;;;;;5054781;28;20049;-60
2021/07/21 05:36:01;;;;;;;3.67;3.13;;;25.20;50.50;;;;;;5054863;28;20076;-61
2021/07/21 05:38:29;;;;;;;3.50;3.10;;;25.10;50.40;;;;;;5058133;28;20076;-66
2021/07/21 05:40:56;;;;;;;5.15;3.83;;;24.90;50.40;;;;;;5068673;28;20045;-65
2021/07/21 05:43:24;;;;;;;4.40;3.10;;;24.80;50.30;;;;;;5076481;28;20091;-65
2021/07/21 05:45:52;;;;;;;5.07;3.65;;;24.60;50.30;;;;;;5055221;28;20084;-66
2021/07/21 05:48:19;;;;;;;5.88;3.72;;;24.40;50.50;;;;;;5052171;28;20131;-59
2021/07/21 05:50:46;;;;;;;4.10;3.40;;;24.30;50.60;;;;;;5051745;28;20465;-66
2021/07/21 05:53:13;;;;;;;4.20;3.63;;;24.10;50.90;;;;;;5054101;28;20091;-61
2021/07/21 05:55:40;;;;;;;6.80;4.03;;;24.10;51.40;;;;;;5053996;28;20774;-60
2021/07/21 05:58:10;;;;;;;5.88;3.67;;;24.00;51.60;;;;;;5052062;28;20155;-66
2021/07/21 06:00:37;;;;;;;3.53;3.10;;;23.90;51.70;;;;;;5052206;28;20043;-61
2021/07/21 06:03:05;;;;;;;6.55;3.55;;;23.80;51.60;;;;;;5058130;28;20045;-61
2021/07/21 06:05:32;;;;;;;4.90;3.42;;;23.80;51.40;;;;;;5053760;28;20040;-61
2021/07/21 06:07:59;;;;;;;4.85;3.83;;;23.70;51.30;;;;;;5050466;28;20055;-60
2021/07/21 06:10:27;;;;;;;4.30;3.50;;;23.60;51.30;;;;;;5052126;28;20420;-61
2021/07/21 06:12:54;;;;;;;6.30;3.55;;;23.60;51.50;;;;;;5055244;28;21038;-59
2021/07/21 06:15:26;;;;;;;5.25;3.67;;;23.50;51.40;;;;;;5056467;28;20157;-59
2021/07/21 06:17:54;;;;;;;6.90;3.92;;;23.50;51.60;;;;;;5050683;28;20054;-59
2021/07/21 06:20:21;;;;;;;6.22;4.05;;;23.40;51.80;;;;;;5051758;28;20033;-60
2021/07/21 06:22:48;;;;;;;3.90;3.30;;;23.40;51.70;;;;;;5047913;28;20207;-64
2021/07/21 06:25:16;;;;;;;7.72;4.95;;;23.30;51.70;;;;;;5052252;28;20135;-60
2021/07/21 06:27:43;;;;;;;5.57;3.75;;;23.30;51.90;;;;;;5046645;28;20641;-59
2021/07/21 06:30:12;;;;;;;6.45;3.80;;;23.30;52.10;;;;;;5044752;28;20168;-61
2021/07/21 06:32:44;;;;;;;5.25;4.10;;;23.20;52.00;;;;;;5050043;28;20084;-59
2021/07/21 06:35:11;;;;;;;6.25;3.47;;;23.20;52.30;;;;;;5048948;28;20053;-60
2021/07/21 06:37:39;;;;;;;3.78;3.22;;;23.20;52.50;;;;;;5058530;28;20123;-59
2021/07/21 06:40:07;;;;;;;6.35;3.70;;;23.10;52.30;;;;;;5048892;28;20079;-62
2021/07/21 06:42:39;;;;;;;6.55;4.03;;;23.10;52.20;;;;;;5049814;28;20048;-64
2021/07/21 06:45:11;;;;;;;5.68;3.83;;;23.10;52.40;;;;;;5056429;28;20134;-60
2021/07/21 06:47:38;;;;;;;5.78;4.30;;;23.10;52.70;;;;;;5051597;28;20461;-60
2021/07/21 06:50:06;;;;;;;4.40;3.72;;;23.10;52.70;;;;;;5051705;28;20693;-63
2021/07/21 06:52:33;;;;;;;6.80;4.50;;;23.00;52.80;;;;;;5046218;28;20052;-61
2021/07/21 06:55:00;;;;;;;5.28;4.18;;;23.00;52.50;;;;;;5050504;28;20144;-62
2021/07/21 06:57:28;;;;;;;5.03;3.83;;;23.00;52.80;;;;;;5043338;28;20120;-60
2021/07/21 06:59:55;;;;;;;5.10;4.03;;;23.00;52.90;;;;;;5047735;28;20045;-60
2021/07/21 07:02:22;;;;;;;4.88;3.88;;;22.90;52.80;;;;;;5051715;28;20052;-59
2021/07/21 07:04:55;;;;;;;6.10;4.28;;;23.00;52.70;;;;;;5042588;28;20120;-59
2021/07/21 07:07:23;;;;;;;4.90;3.97;;;23.00;52.80;;;;;;5050296;28;20750;-60
2021/07/21 07:09:50;;;;;;;6.40;3.28;;;23.00;52.80;;;;;;5045001;28;20056;-58
2021/07/21 07:12:17;;;;;;;9.90;4.18;;;23.00;52.80;;;;;;5047281;28;20049;-57
2021/07/21 07:14:45;;;;;;;5.28;3.20;;;23.00;52.80;;;;;;5042986;28;20835;-62
2021/07/21 07:17:13;;;;;;;4.93;3.45;;;23.00;53.00;;;;;;5047956;28;20056;-56
2021/07/21 07:19:40;;;;;;;4.53;3.30;;;22.90;53.00;;;;;;5047157;28;20058;-57
2021/07/21 07:22:07;;;;;;;6.07;3.72;;;23.00;53.10;;;;;;5048003;28;20104;-57
2021/07/21 07:24:34;;;;;;;5.05;3.60;;;23.00;53.10;;;;;;5057933;28;20128;-55
2021/07/21 07:27:03;;;;;;;6.88;4.00;;;22.90;52.90;;;;;;5049612;28;20071;-63
2021/07/21 07:29:31;;;;;;;5.28;3.75;;;23.00;52.90;;;;;;5053253;28;20162;-53
2021/07/21 07:31:58;;;;;;;4.53;3.38;;;23.00;52.90;;;;;;5051762;28;20772;-62
2021/07/21 07:34:25;;;;;;;4.25;3.63;;;23.00;52.90;;;;;;5046874;28;20411;-53
2021/07/21 07:36:52;;;;;;;4.97;3.67;;;22.90;52.80;;;;;;5046694;28;20049;-55
2021/07/21 07:39:21;;;;;;;6.80;3.85;;;23.00;52.80;;;;;;5054406;28;20044;-62
2021/07/21 07:41:50;;;;;;;6.07;4.30;;;23.00;52.80;;;;;;5053460;28;20079;-63
2021/07/21 07:44:17;;;;;;;5.75;3.78;;;23.00;52.80;;;;;;5054501;28;20126;-57
2021/07/21 07:46:44;;;;;;;6.53;3.72;;;23.00;52.60;;;;;;5053144;28;20152;-62
2021/07/21 07:49:11;;;;;;;5.72;3.35;;;23.00;52.40;;;;;;5052192;28;20148;-62
2021/07/21 07:51:40;;;;;;;5.22;3.55;;;23.00;52.30;;;;;;5053370;28;20113;-59
2021/07/21 07:54:07;;;;;;;5.07;3.33;;;23.00;52.30;;;;;;5059062;28;20532;-60
2021/07/21 07:56:35;;;;;;;5.72;3.42;;;23.00;52.50;;;;;;5053049;28;20045;-58
2021/07/21 07:59:02;;;;;;;4.05;3.65;;;23.00;52.60;;;;;;5051285;28;20029;-60
2021/07/21 08:01:30;;;;;;;4.82;3.67;;;23.00;52.50;;;;;;5054589;28;20052;-59
2021/07/21 08:04:01;;;;;;;6.00;3.53;;;23.00;52.30;;;;;;5049111;28;20170;-60
2021/07/21 08:06:34;;;;;;;8.38;3.78;;;23.00;52.30;;;;;;5050610;28;20433;-61
2021/07/21 08:09:03;;;;;;;3.65;3.22;;;23.10;52.30;;;;;;5053321;28;20055;-60
2021/07/21 08:11:30;;;;;;;3.50;2.92;;;23.10;52.30;;;;;;5050155;28;20474;-60
2021/07/21 08:13:57;;;;;;;3.97;3.58;;;23.10;52.10;;;;;;5041139;28;20049;-57
2021/07/21 08:16:25;;;;;;;6.30;3.17;;;23.10;52.00;;;;;;5045292;28;20658;-55
2021/07/21 08:18:52;;;;;;;3.22;2.90;;;23.20;52.00;;;;;;5053353;28;20103;-59
2021/07/21 08:21:19;;;;;;;3.53;3.22;;;23.20;52.40;;;;;;5062478;28;20079;-59
2021/07/21 08:23:46;;;;;;;3.42;3.13;;;23.20;51.70;;;;;;5052863;28;20139;-61
2021/07/21 08:26:14;;;;;;;4.22;3.15;;;23.20;51.60;;;;;;5044477;28;20045;-66
2021/07/21 08:28:41;;;;;;;3.55;2.92;;;23.30;51.60;;;;;;5047451;28;20055;-59
2021/07/21 08:31:08;;;;;;;4.07;3.17;;;23.30;51.50;;;;;;5050210;28;20588;-67
2021/07/21 08:33:35;;;;;;;3.30;3.00;;;23.40;51.50;;;;;;5050254;28;20049;-62
2021/07/21 08:36:03;;;;;;;3.60;3.10;;;23.40;51.30;;;;;;5048660;28;20523;-61
2021/07/21 08:38:31;;;;;;;4.90;3.13;;;23.40;51.10;;;;;;5053352;28;20715;-62
2021/07/21 08:41:00;;;;;;;4.53;2.78;;;23.40;50.80;;;;;;5052278;28;20053;-66
2021/07/21 08:43:28;;;;;;;3.72;3.28;;;23.40;50.70;;;;;;5049376;28;20767;-62
2021/07/21 08:45:56;;;;;;;2.95;2.70;;;23.40;50.50;;;;;;5050665;28;20045;-60
2021/07/21 08:48:24;;;;;;;3.53;2.45;;;23.50;50.50;;;;;;5052107;28;20040;-61
2021/07/21 08:50:52;;;;;;;5.43;2.30;;;23.50;50.30;;;;;;5051916;28;20140;-63
2021/07/21 08:53:19;;;;;;;3.92;2.85;;;23.50;50.30;;;;;;5046198;28;20049;-61
2021/07/21 08:55:49;;;;;;;2.88;2.67;;;23.50;50.30;;;;;;5049941;28;20055;-60
2021/07/21 08:58:20;;;;;;;7.40;3.00;;;23.50;50.90;;;;;;5045207;28;20048;-59
2021/07/21 09:00:52;;;;;;;3.85;2.70;;;23.50;50.20;;;;;;5052013;28;20053;-60
2021/07/21 09:03:21;;;;;;;3.15;2.72;;;23.40;50.10;;;;;;5058201;28;20060;-62
2021/07/21 09:05:50;;;;;;;2.80;2.53;;;23.50;50.20;;;;;;5047972;28;20045;-62
2021/07/21 09:08:17;;;;;;;2.97;2.75;;;23.50;50.10;;;;;;5055913;28;20112;-63
2021/07/21 09:10:46;;;;;;;3.13;2.85;;;23.50;50.20;;;;;;5047427;28;20044;-63
2021/07/21 09:13:14;;;;;;;3.60;3.30;;;23.50;50.10;;;;;;5051476;28;20052;-64
2021/07/21 09:15:43;;;;;;;4.28;3.10;;;23.50;50.20;;;;;;5051358;28;20056;-63
2021/07/21 09:18:12;;;;;;;6.68;2.63;;;23.50;50.20;;;;;;5051700;28;20531;-60
2021/07/21 09:20:49;;;;;;;3.90;2.67;;;23.50;50.10;;;;;;5049559;28;20465;-62
2021/07/21 09:23:19;;;;;;;2.95;2.63;;;23.50;50.10;;;;;;5042783;28;20073;-60
2021/07/21 09:25:46;;;;;;;10.18;3.35;;;23.50;50.20;;;;;;5049761;28;20646;-60
2021/07/21 09:28:14;;;;;;;3.40;2.75;;;23.60;50.10;;;;;;5045083;28;20779;-60
2021/07/21 09:31:43;;;;;;;3.03;2.80;;;23.60;50.10;;;;;;5043987;28;20143;-61
2021/07/21 09:34:42;;;;;;;3.38;3.00;;;23.60;50.10;;;;;;5037751;28;20066;-60
2021/07/21 09:37:13;;;;;;;3.03;2.70;;;23.60;50.10;;;;;;5054528;28;20049;-60
2021/07/21 09:39:42;;;;;;;3.10;2.50;;;23.50;50.00;;;;;;5047091;28;20037;-66
2021/07/21 09:42:10;;;;;;;3.22;2.92;;;23.60;50.10;;;;;;5048740;28;20053;-66
2021/07/21 09:44:40;;;;;;;2.67;2.47;;;23.60;50.10;;;;;;5048263;28;20052;-63
2021/07/21 09:47:22;;;;;;;4.90;3.20;;;23.60;50.10;;;;;;5047952;28;20065;-69
2021/07/21 09:49:51;;;;;;;4.22;2.90;;;23.60;50.00;;;;;;5055228;28;20122;-64
2021/07/21 09:52:29;;;;;;;3.08;2.70;;;23.60;49.80;;;;;;5054816;28;20055;-69
2021/07/21 09:55:05;;;;;;;3.28;2.97;;;23.60;49.80;;;;;;5053968;28;20076;-64
2021/07/21 09:57:33;;;;;;;3.95;3.53;;;23.50;49.60;;;;;;5048377;28;20569;-69
2021/07/21 10:00:16;;;;;;;4.35;3.22;;;23.50;49.40;;;;;;5051297;28;20052;-65
2021/07/21 10:02:47;;;;;;;2.70;2.47;;;23.60;49.40;;;;;;5049497;28;20041;-65
2021/07/21 10:05:15;;;;;;;4.18;2.72;;;23.60;49.30;;;;;;5046833;28;20045;-66
2021/07/21 10:07:49;;;;;;;3.55;3.25;;;23.50;49.10;;;;;;5052114;28;20044;-65
2021/07/21 10:10:22;;;;;;;3.72;3.38;;;23.50;49.10;;;;;;5049266;28;20088;-70
2021/07/21 10:13:07;;;;;;;4.22;3.08;;;23.50;48.90;;;;;;5048894;28;20087;-65
2021/07/21 10:15:35;;;;;;;2.95;2.75;;;23.50;48.80;;;;;;5049185;28;20041;-65
2021/07/21 10:18:13;;;;;;;3.83;3.22;;;23.50;48.80;;;;;;5048287;28;20053;-66
2021/07/21 10:20:42;;;;;;;3.40;3.10;;;23.50;48.80;;;;;;5051920;28;20102;-66
2021/07/21 10:23:12;;;;;;;3.85;3.10;;;23.50;48.80;;;;;;5047913;28;20782;-68
2021/07/21 10:25:39;;;;;;;5.72;3.22;;;23.50;48.80;;;;;;5041438;28;20489;-63
2021/07/21 10:28:08;;;;;;;4.00;3.00;;;23.50;48.70;;;;;;5051887;28;20438;-65
2021/07/21 10:30:39;;;;;;;3.55;2.97;;;23.50;48.70;;;;;;5047500;28;20079;-63
2021/07/21 10:33:06;;;;;;;;;;;23.50;48.70;;;;;;5052334;28;20111;-63
2021/07/21 10:35:33;;;;;;;4.38;3.13;;;23.50;48.70;;;;;;5049680;28;20451;-63
2021/07/21 10:38:00;;;;;;;5.63;3.15;;;23.60;48.70;;;;;;5049813;28;20139;-68
2021/07/21 10:40:32;;;;;;;4.35;3.22;;;23.50;48.70;;;;;;5049683;28;20255;-67
2021/07/21 10:43:00;;;;;;;5.97;2.80;;;23.60;48.80;;;;;;5047827;28;20592;-63
2021/07/21 10:45:45;;;;;;;4.60;3.53;;;23.60;48.70;;;;;;5053062;28;20074;-67
2021/07/21 10:48:21;;;;;;;3.67;2.60;;;23.60;48.70;;;;;;5068397;28;20139;-62
2021/07/21 10:51:10;;;;;;;3.55;3.03;;;23.60;48.60;;;;;;5075268;28;20054;-62
2021/07/21 10:53:48;;;;;;;4.07;3.22;;;23.60;48.50;;;;;;5047362;28;20053;-66
2021/07/21 10:59:17;;;;;;;;;;;23.60;48.40;;;;;;5051221;28;20075;-65
2021/07/21 11:01:49;;;;;;;3.05;2.83;;;23.60;48.30;;;;;;5053060;28;19956;-66
2021/07/21 11:04:17;;;;;;;3.30;3.00;;;23.60;48.30;;;;;;5055433;28;20179;-64
2021/07/21 11:06:47;;;;;;;2.90;2.55;;;23.60;48.30;;;;;;5051215;28;20071;-60
2021/07/21 11:09:26;;;;;;;2.97;2.65;;;23.60;48.20;;;;;;5051613;28;20072;-64
2021/07/21 11:11:57;;;;;;;4.15;3.53;;;23.60;48.20;;;;;;5058043;28;20074;-60
2021/07/21 11:14:29;;;;;;;4.70;3.13;;;23.60;48.20;;;;;;5055278;28;20039;-61
2021/07/21 11:17:13;;;;;;;2.95;2.65;;;23.60;48.00;;;;;;5050414;28;20053;-60
2021/07/21 11:19:52;;;;;;;3.35;2.80;;;23.60;48.10;;;;;;5056355;28;20078;-60
2021/07/21 11:22:29;;;;;;;4.43;2.58;;;23.60;48.00;;;;;;5062847;28;20098;-64
2021/07/21 11:25:16;;;;;;;4.22;3.00;;;23.60;48.00;;;;;;5057010;28;20132;-60
2021/07/21 11:28:02;;;;;;;4.72;2.92;;;23.60;47.90;;;;;;5051526;28;20044;-60
2021/07/21 11:30:56;;;;;;;2.67;2.42;;;23.60;48.00;;;;;;5056446;28;20640;-60
2021/07/21 11:33:54;;;;;;;3.20;2.20;;;23.60;47.90;;;;;;5054323;28;20048;-61
2021/07/21 11:36:48;;;;;;;3.42;2.90;;;23.60;47.90;;;;;;5053790;28;20044;-61
2021/07/21 11:39:47;;;;;;;4.07;2.60;;;23.70;47.90;;;;;;5055345;28;20049;-55
2021/07/21 11:42:34;;;;;;;3.58;3.28;;;23.70;48.70;;;;;;5050461;28;20151;-61
2021/07/21 11:45:12;;;;;;;2.95;2.60;;;23.70;49.20;;;;;;5051116;28;20048;-62
2021/07/21 11:47:56;;;;;;;4.47;3.10;;;23.70;48.70;;;;;;5050216;28;20045;-59
2021/07/21 11:50:25;;;;;;;2.85;2.50;;;23.70;49.10;;;;;;5058513;28;20140;-59
2021/07/21 11:52:58;;;;;;;3.83;2.65;;;23.70;49.20;;;;;;5055293;28;20053;-59
2021/07/21 11:55:30;;;;;;;4.28;2.63;;;23.70;49.20;;;;;;5053731;28;20052;-64
2021/07/21 11:57:57;;;;;;;5.75;2.50;;;23.70;49.40;;;;;;5056925;28;20052;-55
2021/07/21 12:00:25;;;;;;;3.80;2.50;;;23.70;49.50;;;;;;5050440;28;20072;-61
2021/07/21 12:03:04;;;;;;;2.60;2.28;;;23.80;49.60;;;;;;5052035;28;20073;-62
2021/07/21 12:05:34;;;;;;;2.28;2.08;;;23.80;49.70;;;;;;5051247;28;20048;-67
2021/07/21 12:08:20;;;;;;;4.50;2.67;;;23.80;49.60;;;;;;5044463;28;20245;-62
2021/07/21 12:10:48;;;;;;;2.95;2.72;;;23.80;49.20;;;;;;5050475;28;20072;-62
2021/07/21 12:13:19;;;;;;;3.35;2.80;;;23.80;49.00;;;;;;5055818;28;20132;-62
2021/07/21 12:16:00;;;;;;;2.85;2.47;;;23.90;48.80;;;;;;5051403;28;20148;-68
2021/07/21 12:18:28;;;;;;;7.90;2.50;;;23.90;48.70;;;;;;5050147;28;20049;-61
2021/07/21 12:21:06;;;;;;;2.88;2.20;;;23.90;48.60;;;;;;5061921;28;20090;-60
2021/07/21 12:23:33;;;;;;;2.47;2.28;;;23.90;49.30;;;;;;5056699;28;20045;-64
2021/07/21 12:26:09;;;;;;;3.30;2.72;;;23.90;49.80;;;;;;5054697;28;20136;-64
2021/07/21 12:28:37;;;;;;;2.80;2.50;;;23.90;50.20;;;;;;5054337;28;20083;-69
2021/07/21 12:31:04;;;;;;;3.47;2.40;;;24.00;50.50;;;;;;5059834;28;20053;-65
2021/07/21 12:33:31;;;;;;;4.03;2.65;;;24.00;50.60;;;;;;5058382;28;20063;-67
2021/07/21 12:36:07;;;;;;;3.30;2.75;;;24.00;50.70;;;;;;5052195;28;20068;-67
2021/07/21 12:38:38;;;;;;;3.00;2.70;;;24.10;50.80;;;;;;5057278;28;20128;-68
2021/07/21 12:41:10;;;;;;;3.10;2.80;;;24.10;50.80;;;;;;5051201;28;20769;-60
2021/07/21 12:43:37;;;;;;;3.03;2.75;;;24.10;50.90;;;;;;5055272;28;20539;-66
2021/07/21 12:46:14;;;;;;;2.13;1.92;;;24.10;50.70;;;;;;5055983;28;20780;-66
2021/07/21 12:48:42;;;;;;;4.15;2.28;;;24.10;50.70;;;;;;5051621;28;20036;-67
2021/07/21 12:51:09;;;;;;;2.45;2.25;;;24.20;50.70;;;;;;5044559;28;20142;-65
2021/07/21 12:53:37;;;;;;;3.75;2.50;;;24.20;50.60;;;;;;5056400;28;20039;-68
2021/07/21 12:56:05;;;;;;;3.10;2.85;;;24.20;50.40;;;;;;5054314;28;20053;-68
2021/07/21 12:58:32;;;;;;;4.80;2.58;;;24.30;51.00;;;;;;5052872;28;20053;-63
2021/07/21 13:01:00;;;;;;;2.47;2.28;;;24.30;50.40;;;;;;5053477;28;20048;-62
2021/07/21 13:03:28;;;;;;;2.65;2.45;;;24.30;50.20;;;;;;5049334;28;20041;-62
2021/07/21 13:05:58;;;;;;;2.88;2.65;;;24.30;50.10;;;;;;5048133;28;20163;-62
2021/07/21 13:08:32;;;;;;;3.08;2.70;;;24.40;50.10;;;;;;5056124;28;20068;-62
2021/07/21 13:11:10;;;;;;;3.63;2.75;;;24.40;50.00;;;;;;5059334;28;20045;-62
2021/07/21 13:13:40;;;;;;;4.10;2.75;;;24.50;50.00;;;;;;5053803;28;20044;-72